Time;durP1;ratioP1;P1;durP2;ratioP2;P2;SDS_P1;SDS_P2;PMS_P1;PMS_P2;Temp;Humidity;BMP_temperature;BMP_pressure;BME280_temperature;BME280_humidity;BME280_pressure;Samples;Min_cycle;Max_cycle;Signal;HPM_P1;HPM_P2
2022/09/29 00:00:49;;;;;;;12.17;6.97;;;8.80;99.90;;;;;;5049563;28;20212;-62
2022/09/29 00:03:16;;;;;;;9.33;6.13;;;8.60;99.90;;;;;;5030093;28;21004;-62
2022/09/29 00:05:48;;;;;;;9.33;5.93;;;8.80;99.90;;;;;;5035335;28;21189;-62
2022/09/29 00:08:16;;;;;;;9.53;5.97;;;10.70;99.90;;;;;;5027076;28;20212;-63
2022/09/29 00:10:43;;;;;;;8.50;5.70;;;8.70;99.90;;;;;;5013475;28;20240;-62
2022/09/29 00:13:10;;;;;;;7.97;5.73;;;8.60;99.90;;;;;;5033107;28;20208;-62
2022/09/29 00:15:37;;;;;;;9.10;5.70;;;8.60;99.90;;;;;;5045568;28;20202;-62
2022/09/29 00:18:04;;;;;;;7.10;5.13;;;8.50;99.90;;;;;;5036570;28;20224;-62
2022/09/29 00:20:32;;;;;;;9.03;5.80;;;8.40;99.90;;;;;;5018549;28;20231;-62
2022/09/29 00:22:59;;;;;;;8.83;6.10;;;8.40;99.90;;;;;;5012583;28;20223;-62
2022/09/29 00:25:27;;;;;;;6.50;5.13;;;8.50;99.90;;;;;;4986016;28;20213;-66
2022/09/29 00:27:54;;;;;;;7.30;5.37;;;8.40;99.90;;;;;;5026719;28;20209;-62
2022/09/29 00:30:21;;;;;;;7.83;5.90;;;8.40;99.90;;;;;;5016054;28;20214;-63
2022/09/29 00:32:47;;;;;;;7.53;5.83;;;8.60;99.90;;;;;;5017637;28;20205;-62
2022/09/29 00:35:16;;;;;;;7.83;5.47;;;8.50;99.90;;;;;;5015940;28;20209;-63
2022/09/29 00:37:43;;;;;;;6.20;4.50;;;8.20;99.90;;;;;;5013663;28;20241;-63
2022/09/29 00:40:11;;;;;;;5.73;4.30;;;8.40;99.90;;;;;;5012802;28;20703;-63
2022/09/29 00:42:39;;;;;;;4.67;3.63;;;8.70;99.90;;;;;;4992588;28;20695;-62
2022/09/29 00:45:15;;;;;;;6.83;3.57;;;8.30;99.90;;;;;;5016175;28;20216;-63
2022/09/29 00:47:45;;;;;;;4.40;3.10;;;8.30;99.90;;;;;;5018685;28;20209;-63
2022/09/29 00:50:16;;;;;;;4.27;3.57;;;8.30;99.90;;;;;;5015299;28;20237;-62
2022/09/29 00:52:46;;;;;;;3.97;3.07;;;8.30;99.90;;;;;;5025013;28;20222;-63
2022/09/29 00:55:18;;;;;;;4.57;3.17;;;8.10;99.90;;;;;;4997940;28;20209;-63
2022/09/29 00:57:51;;;;;;;4.23;3.23;;;8.20;99.90;;;;;;4999067;28;20229;-62
2022/09/29 01:00:18;;;;;;;3.73;3.20;;;7.90;99.90;;;;;;5007222;28;20221;-62
2022/09/29 01:02:49;;;;;;;4.40;3.57;;;8.20;99.90;;;;;;5024336;28;20217;-62
2022/09/29 01:05:21;;;;;;;4.33;3.37;;;8.10;99.90;;;;;;5011170;28;20202;-62
2022/09/29 01:07:49;;;;;;;9.47;3.60;;;;;;;;;;5026737;28;20206;-62
2022/09/29 01:10:17;;;;;;;6.27;3.90;;;7.50;99.90;;;;;;4998222;28;20212;-63
2022/09/29 01:12:48;;;;;;;6.93;3.47;;;8.10;99.90;;;;;;5024694;28;20193;-63
2022/09/29 01:15:17;;;;;;;4.93;3.90;;;7.80;99.90;;;;;;4987619;28;20240;-63
2022/09/29 01:17:46;;;;;;;4.10;3.70;;;8.00;99.90;;;;;;5013255;28;20244;-62
2022/09/29 01:20:15;;;;;;;4.73;3.67;;;5.20;99.90;;;;;;5006060;28;20541;-63
2022/09/29 01:23:08;;;;;;;4.60;3.77;;;8.00;99.90;;;;;;5026916;28;20218;-62
2022/09/29 01:25:57;;;;;;;5.20;3.40;;;8.20;99.90;;;;;;5012311;28;20208;-63
2022/09/29 01:28:54;;;;;;;3.83;3.27;;;5.90;99.90;;;;;;5017938;28;20726;-63
2022/09/29 01:31:32;;;;;;;5.50;3.43;;;7.90;99.90;;;;;;5008933;28;20758;-62
2022/09/29 01:34:07;;;;;;;4.47;3.77;;;7.90;99.90;;;;;;5003684;28;20627;-62
2022/09/29 01:36:42;;;;;;;3.63;2.83;;;7.80;99.90;;;;;;5014587;28;20697;-62
2022/09/29 01:39:18;;;;;;;4.23;3.70;;;7.40;99.90;;;;;;5011897;28;20193;-63
2022/09/29 01:41:51;;;;;;;5.23;3.97;;;7.70;99.90;;;;;;5011428;28;20208;-62
2022/09/29 01:44:26;;;;;;;4.53;3.13;;;10.90;99.90;;;;;;4991806;28;20591;-63
2022/09/29 01:46:58;;;;;;;4.43;3.80;;;8.20;99.90;;;;;;5025778;28;20205;-62
2022/09/29 01:49:29;;;;;;;3.93;3.37;;;7.40;99.90;;;;;;5000734;28;20206;-63
2022/09/29 01:52:01;;;;;;;5.57;3.60;;;10.10;99.90;;;;;;5020910;28;20193;-63
2022/09/29 01:54:34;;;;;;;6.07;4.07;;;7.70;99.90;;;;;;5017196;28;20775;-62
2022/09/29 01:57:06;;;;;;;4.57;3.20;;;7.50;99.90;;;;;;4996450;28;20707;-62
2022/09/29 01:59:40;;;;;;;5.33;3.50;;;7.70;99.90;;;;;;4995224;28;20213;-62
2022/09/29 02:02:12;;;;;;;4.73;3.23;;;7.40;99.90;;;;;;5008205;28;20225;-63
2022/09/29 02:04:43;;;;;;;3.90;3.13;;;7.40;99.90;;;;;;5015817;28;20216;-63
2022/09/29 02:07:18;;;;;;;3.87;3.00;;;10.10;99.90;;;;;;4999076;28;20234;-63
2022/09/29 02:09:48;;;;;;;5.40;3.60;;;7.30;99.90;;;;;;5024823;28;20218;-63
2022/09/29 02:12:21;;;;;;;4.00;3.30;;;7.40;99.90;;;;;;4993846;28;20694;-63
2022/09/29 02:14:50;;;;;;;6.77;3.33;;;6.20;99.90;;;;;;4997097;28;20230;-63
2022/09/29 02:17:21;;;;;;;4.77;3.57;;;7.00;99.90;;;;;;5003171;28;20707;-62
2022/09/29 02:19:50;;;;;;;5.20;3.30;;;5.70;99.90;;;;;;5011920;28;21174;-62
2022/09/29 02:22:18;;;;;;;5.03;3.40;;;7.40;99.90;;;;;;5009415;28;20238;-62
2022/09/29 02:24:45;;;;;;;4.47;3.70;;;8.70;99.90;;;;;;5007910;28;20212;-62
2022/09/29 02:27:12;;;;;;;4.13;3.70;;;7.30;99.90;;;;;;5013503;28;20218;-62
2022/09/29 02:29:39;;;;;;;4.03;3.17;;;9.40;99.90;;;;;;4978424;28;20216;-62
2022/09/29 02:32:09;;;;;;;4.60;3.20;;;7.30;99.90;;;;;;5011072;28;20206;-62
2022/09/29 02:34:41;;;;;;;4.10;3.33;;;5.30;99.90;;;;;;5006737;28;21058;-63
2022/09/29 02:37:24;;;;;;;5.53;3.53;;;7.30;99.90;;;;;;5015657;28;20221;-63
2022/09/29 02:39:59;;;;;;;4.83;3.87;;;7.40;99.90;;;;;;5010637;28;20211;-62
2022/09/29 02:42:33;;;;;;;3.90;3.27;;;7.30;99.90;;;;;;4995561;28;20205;-63
2022/09/29 02:45:22;;;;;;;6.13;3.20;;;7.40;99.90;;;;;;4996227;28;20229;-62
2022/09/29 02:48:05;;;;;;;7.03;3.83;;;7.10;99.90;;;;;;4990463;28;20265;-62
2022/09/29 02:51:04;;;;;;;6.43;4.57;;;7.30;99.90;;;;;;5024952;28;20209;-62
2022/09/29 02:53:45;;;;;;;5.67;3.77;;;7.40;99.90;;;;;;4998921;28;20197;-63
2022/09/29 02:56:20;;;;;;;5.57;4.10;;;7.20;99.90;;;;;;5009797;28;20922;-62
2022/09/29 02:58:51;;;;;;;6.20;4.03;;;8.70;99.90;;;;;;5002599;28;20375;-62
2022/09/29 03:01:18;;;;;;;6.33;4.53;;;7.30;99.90;;;;;;4982662;28;20220;-63
2022/09/29 03:03:45;;;;;;;9.60;5.33;;;8.30;99.90;;;;;;5007788;28;20209;-63
2022/09/29 03:06:14;;;;;;;6.93;5.30;;;7.50;99.90;;;;;;5003313;28;20229;-62
2022/09/29 03:08:41;;;;;;;9.53;6.50;;;8.30;99.90;;;;;;5006635;28;20784;-63
2022/09/29 03:11:08;;;;;;;6.53;5.53;;;7.60;99.90;;;;;;5010815;28;20231;-62
2022/09/29 03:13:34;;;;;;;10.70;5.83;;;8.60;99.90;;;;;;5009071;28;20204;-63
2022/09/29 03:16:02;;;;;;;7.17;5.80;;;7.80;99.90;;;;;;4991871;28;20296;-62
2022/09/29 03:18:28;;;;;;;13.23;5.73;;;8.30;99.90;;;;;;5007058;28;20224;-62
2022/09/29 03:20:56;;;;;;;9.57;6.17;;;;;;;;;;5020890;28;21452;-62
2022/09/29 03:23:25;;;;;;;8.40;6.07;;;7.40;99.90;;;;;;5013190;28;20680;-62
2022/09/29 03:25:51;;;;;;;8.27;5.80;;;7.80;99.90;;;;;;5014365;28;20956;-63
2022/09/29 03:28:18;;;;;;;8.47;6.20;;;7.70;99.90;;;;;;5012148;28;20210;-64
2022/09/29 03:30:45;;;;;;;7.60;5.77;;;8.80;99.90;;;;;;4980304;28;21308;-63
2022/09/29 03:33:12;;;;;;;7.77;6.03;;;7.70;99.90;;;;;;5020908;28;20204;-63
2022/09/29 03:35:39;;;;;;;14.73;6.60;;;7.40;99.90;;;;;;5023550;28;20201;-63
2022/09/29 03:38:06;;;;;;;9.07;5.90;;;;;;;;;;5013566;28;20229;-64
2022/09/29 03:40:34;;;;;;;11.33;6.63;;;8.50;99.90;;;;;;5012278;28;20201;-62
2022/09/29 03:43:01;;;;;;;9.83;6.63;;;7.70;99.90;;;;;;5018841;28;20201;-63
2022/09/29 03:45:27;;;;;;;14.33;5.73;;;7.90;99.90;;;;;;5008805;28;20210;-63
2022/09/29 03:47:54;;;;;;;11.00;7.90;;;8.00;99.90;;;;;;4989742;28;20850;-63
2022/09/29 03:50:21;;;;;;;13.83;11.13;;;7.70;99.90;;;;;;5019363;28;20221;-63
2022/09/29 03:52:48;;;;;;;14.23;10.47;;;7.70;99.90;;;;;;5022005;28;20370;-63
2022/09/29 03:55:15;;;;;;;12.80;9.53;;;7.70;99.90;;;;;;5012360;28;20714;-62
2022/09/29 03:57:43;;;;;;;13.23;8.50;;;7.60;99.90;;;;;;5009781;28;20795;-63
2022/09/29 04:00:11;;;;;;;10.70;5.50;;;7.80;99.90;;;;;;5020416;28;20695;-63
2022/09/29 04:02:38;;;;;;;19.40;6.20;;;7.80;99.90;;;;;;4980038;28;20209;-64
2022/09/29 04:05:06;;;;;;;10.10;5.70;;;7.90;99.90;;;;;;5015771;28;20270;-63
2022/09/29 04:07:32;;;;;;;19.30;5.47;;;7.70;99.90;;;;;;5029770;28;20217;-62
2022/09/29 04:09:59;;;;;;;7.70;5.63;;;7.60;99.90;;;;;;5010588;28;20208;-62
2022/09/29 04:12:26;;;;;;;15.33;5.87;;;7.80;99.90;;;;;;5021847;28;20666;-62
2022/09/29 04:14:54;;;;;;;6.53;5.27;;;7.80;99.90;;;;;;5003811;28;20197;-62
2022/09/29 04:17:21;;;;;;;6.23;4.93;;;7.70;99.90;;;;;;4998170;23;20236;-62
2022/09/29 04:19:48;;;;;;;8.13;5.27;;;7.70;99.90;;;;;;5022303;28;20216;-62
2022/09/29 04:22:17;;;;;;;13.27;5.80;;;7.70;99.90;;;;;;5039298;28;20200;-62
2022/09/29 04:24:44;;;;;;;7.73;5.03;;;7.50;99.90;;;;;;5035096;22;20371;-62
2022/09/29 04:27:11;;;;;;;13.77;4.60;;;7.70;99.90;;;;;;5029504;28;20451;-62
2022/09/29 04:29:38;;;;;;;15.33;5.07;;;7.70;99.90;;;;;;5029114;28;20206;-62
2022/09/29 04:32:06;;;;;;;5.17;4.63;;;8.10;99.90;;;;;;5026503;28;21170;-62
2022/09/29 04:34:33;;;;;;;11.77;4.97;;;8.30;99.90;;;;;;5003483;28;20212;-63
2022/09/29 04:37:00;;;;;;;10.70;5.07;;;10.30;99.90;;;;;;5029727;28;20251;-62
2022/09/29 04:39:27;;;;;;;10.07;4.70;;;7.60;99.90;;;;;;5040851;28;20906;-64
2022/09/29 04:41:54;;;;;;;27.70;5.50;;;7.50;99.90;;;;;;5008325;28;20232;-63
2022/09/29 04:44:23;;;;;;;6.43;4.90;;;7.40;99.90;;;;;;5038432;28;20198;-62
2022/09/29 04:46:50;;;;;;;26.53;5.77;;;7.70;99.90;;;;;;5014652;28;20204;-63
2022/09/29 04:49:18;;;;;;;15.73;5.67;;;7.70;99.90;;;;;;5005798;28;20212;-63
2022/09/29 04:51:45;;;;;;;14.03;6.03;;;7.50;99.90;;;;;;5035852;28;20200;-62
2022/09/29 04:54:12;;;;;;;24.93;5.80;;;;;;;;;;5040135;28;20504;-62
2022/09/29 04:56:39;;;;;;;59.77;7.40;;;;;;;;;;5023592;28;20225;-63
2022/09/29 04:59:07;;;;;;;17.77;5.57;;;7.60;99.90;;;;;;5004836;28;20243;-63
2022/09/29 05:01:34;;;;;;;12.77;5.43;;;7.70;99.90;;;;;;5017110;28;20220;-63
2022/09/29 05:04:01;;;;;;;34.00;5.97;;;7.70;99.90;;;;;;4994590;28;20237;-63
2022/09/29 05:06:29;;;;;;;31.63;6.10;;;7.50;99.90;;;;;;5035688;28;20922;-64
2022/09/29 05:08:56;;;;;;;11.73;5.50;;;7.70;99.90;;;;;;5037864;28;20231;-63
2022/09/29 05:11:22;;;;;;;30.93;6.50;;;7.70;99.90;;;;;;5024988;28;20472;-63
2022/09/29 05:13:49;;;;;;;21.83;5.87;;;7.70;99.90;;;;;;5021117;28;20205;-63
2022/09/29 05:16:17;;;;;;;8.33;6.23;;;7.80;99.90;;;;;;5037644;28;20605;-63
2022/09/29 05:18:44;;;;;;;25.87;6.93;;;7.70;99.90;;;;;;5007186;28;20232;-62
2022/09/29 05:21:10;;;;;;;25.37;6.83;;;7.90;99.90;;;;;;5036116;28;20240;-63
2022/09/29 05:23:40;;;;;;;75.13;7.57;;;8.10;99.90;;;;;;5033521;28;20228;-63
2022/09/29 05:26:09;;;;;;;67.80;7.50;;;8.20;99.90;;;;;;5024583;28;20225;-63
2022/09/29 05:28:37;;;;;;;61.90;7.40;;;8.00;99.90;;;;;;5029877;28;20630;-63
2022/09/29 05:31:05;;;;;;;67.77;8.03;;;8.00;99.90;;;;;;5032612;28;20220;-63
2022/09/29 05:33:32;;;;;;;181.13;10.23;;;8.10;99.90;;;;;;5038943;28;20447;-63
2022/09/29 05:35:59;;;;;;;71.03;7.60;;;8.20;99.90;;;;;;5016512;28;20209;-62
2022/09/29 05:38:27;;;;;;;56.03;8.03;;;9.10;99.90;;;;;;5045441;28;20225;-63
2022/09/29 05:40:55;;;;;;;136.33;9.10;;;8.10;99.90;;;;;;5047533;28;20218;-63
2022/09/29 05:43:21;;;;;;;37.17;6.53;;;8.00;99.90;;;;;;5049077;28;20197;-63
2022/09/29 05:45:48;;;;;;;66.13;8.23;;;8.10;99.90;;;;;;5050144;28;20205;-63
2022/09/29 05:48:16;;;;;;;77.13;7.67;;;8.10;99.90;;;;;;5045874;28;20228;-63
2022/09/29 05:50:43;;;;;;;15.50;6.27;;;8.30;99.90;;;;;;5022770;28;20209;-63
2022/09/29 05:53:10;;;;;;;22.30;7.10;;;7.10;99.90;;;;;;5045741;28;20197;-63
2022/09/29 05:55:37;;;;;;;27.60;6.50;;;8.50;99.90;;;;;;5052608;28;20200;-63
2022/09/29 05:58:06;;;;;;;50.40;7.60;;;;;;;;;;5041260;28;20227;-62
2022/09/29 06:00:33;;;;;;;67.30;7.67;;;;;;;;;;5030563;28;20418;-62
2022/09/29 06:03:01;;;;;;;76.63;8.63;;;8.50;99.90;;;;;;5030559;28;20220;-63
2022/09/29 06:05:28;;;;;;;104.63;8.70;;;8.40;99.90;;;;;;4993338;28;20252;-63
2022/09/29 06:07:55;;;;;;;23.37;6.50;;;8.50;99.90;;;;;;5016978;28;20217;-62
2022/09/29 06:10:22;;;;;;;16.47;6.43;;;8.60;99.90;;;;;;5037692;28;20816;-63
2022/09/29 06:12:49;;;;;;;16.20;6.83;;;8.60;99.90;;;;;;5032941;28;20216;-62
2022/09/29 06:15:17;;;;;;;54.57;7.27;;;8.60;99.90;;;;;;5041738;28;20201;-62
2022/09/29 06:17:44;;;;;;;21.53;7.03;;;8.80;99.90;;;;;;5044020;28;20499;-62
2022/09/29 06:20:11;;;;;;;10.03;6.57;;;8.70;99.90;;;;;;5040070;28;20889;-62
2022/09/29 06:22:37;;;;;;;18.30;7.10;;;8.80;99.90;;;;;;5018921;28;20205;-63
2022/09/29 06:25:05;;;;;;;38.40;7.43;;;8.90;99.90;;;;;;5042658;28;20733;-62
2022/09/29 06:27:32;;;;;;;84.23;8.53;;;8.80;99.90;;;;;;5016579;28;20201;-63
2022/09/29 06:29:59;;;;;;;136.93;9.13;;;8.70;99.90;;;;;;5046372;28;20212;-63
2022/09/29 06:32:27;;;;;;;81.07;7.80;;;8.80;99.90;;;;;;5040120;28;20204;-63
2022/09/29 06:37:42;;;;;;;75.17;7.23;;;8.80;99.90;;;;;;5014681;28;20235;-63
2022/09/29 06:40:11;;;;;;;48.20;7.40;;;8.90;99.90;;;;;;5044257;28;20225;-63
2022/09/29 06:42:37;;;;;;;22.27;6.50;;;8.90;99.90;;;;;;5031989;28;20196;-62
2022/09/29 06:45:05;;;;;;;33.97;6.37;;;8.90;99.90;;;;;;5044820;28;20193;-63
2022/09/29 06:47:33;;;;;;;41.40;7.00;;;9.00;99.90;;;;;;5039143;28;20197;-63
2022/09/29 06:50:00;;;;;;;33.37;6.67;;;9.10;99.90;;;;;;5044151;28;20570;-63
2022/09/29 06:52:28;;;;;;;34.20;7.67;;;;;;;;;;5020937;28;20203;-63
2022/09/29 06:54:54;;;;;;;33.23;7.53;;;9.10;99.90;;;;;;5040574;28;20200;-62
2022/09/29 06:57:21;;;;;;;68.20;8.17;;;9.20;99.90;;;;;;5028980;28;20278;-62
2022/09/29 06:59:48;;;;;;;24.37;7.03;;;9.20;99.90;;;;;;5033234;28;20541;-63
2022/09/29 07:02:15;;;;;;;29.83;7.07;;;;;;;;;;5044755;28;20212;-62
2022/09/29 07:04:43;;;;;;;44.17;7.27;;;9.30;99.90;;;;;;5033141;28;20200;-62
2022/09/29 07:07:10;;;;;;;17.30;7.70;;;9.00;99.90;;;;;;5044064;28;20238;-63
2022/09/29 07:09:37;;;;;;;38.03;7.67;;;9.70;99.90;;;;;;5015531;28;20575;-62
2022/09/29 07:12:04;;;;;;;24.13;7.30;;;9.50;99.90;;;;;;5044901;28;20204;-62
2022/09/29 07:14:31;;;;;;;9.27;7.23;;;9.30;99.90;;;;;;5034793;28;20246;-63
2022/09/29 07:16:59;;;;;;;22.77;8.70;;;9.60;99.90;;;;;;5054056;28;20204;-63
2022/09/29 07:19:26;;;;;;;17.33;9.67;;;9.60;99.90;;;;;;5051000;28;20229;-63
2022/09/29 07:21:54;;;;;;;59.57;9.20;;;9.60;99.90;;;;;;5049585;28;20205;-63
2022/09/29 07:24:22;;;;;;;25.63;8.30;;;9.60;99.90;;;;;;5018373;28;20234;-63
2022/09/29 07:26:49;;;;;;;22.07;8.00;;;9.80;99.90;;;;;;5047737;28;20196;-63
2022/09/29 07:29:16;;;;;;;40.97;8.93;;;9.70;99.90;;;;;;5028107;28;20500;-63
2022/09/29 07:31:44;;;;;;;32.97;9.20;;;9.80;99.90;;;;;;5038585;28;20201;-63
2022/09/29 07:34:11;;;;;;;21.57;8.77;;;9.80;99.90;;;;;;5038065;28;20220;-63
2022/09/29 07:36:38;;;;;;;12.23;8.77;;;9.80;99.90;;;;;;5027760;28;20200;-63
2022/09/29 07:39:06;;;;;;;24.50;8.67;;;10.00;99.90;;;;;;5018105;28;20229;-63
2022/09/29 07:41:33;;;;;;;38.07;9.80;;;9.90;99.90;;;;;;5028289;28;20695;-64
2022/09/29 07:44:00;;;;;;;24.23;9.67;;;10.00;99.90;;;;;;5050646;28;20217;-63
2022/09/29 07:46:26;;;;;;;23.50;10.30;;;10.00;99.90;;;;;;5043046;28;20199;-63
2022/09/29 07:48:53;;;;;;;24.40;12.43;;;10.10;99.90;;;;;;5047251;28;20208;-63
2022/09/29 07:51:20;;;;;;;35.93;10.93;;;10.10;99.90;;;;;;5048925;28;20197;-63
2022/09/29 07:53:47;;;;;;;17.20;10.33;;;10.20;99.90;;;;;;5045575;28;20442;-63
2022/09/29 07:56:18;;;;;;;21.17;10.37;;;10.30;99.90;;;;;;5022543;28;20215;-63
2022/09/29 07:58:45;;;;;;;18.93;10.00;;;10.20;99.90;;;;;;5018931;28;20225;-63
2022/09/29 08:01:14;;;;;;;26.10;9.90;;;10.10;99.90;;;;;;5049706;28;20538;-64
2022/09/29 08:03:43;;;;;;;17.20;9.77;;;10.10;99.90;;;;;;5037463;28;20315;-63
2022/09/29 08:06:11;;;;;;;14.17;9.30;;;10.20;99.90;;;;;;5048408;28;20303;-63
2022/09/29 08:08:38;;;;;;;15.47;9.87;;;10.20;99.90;;;;;;5042722;28;20419;-63
2022/09/29 08:11:08;;;;;;;14.67;9.93;;;10.30;99.90;;;;;;5016950;28;20217;-63
2022/09/29 08:13:37;;;;;;;14.00;10.33;;;10.10;99.90;;;;;;5042730;28;20247;-63
2022/09/29 08:16:06;;;;;;;15.87;11.10;;;10.30;99.90;;;;;;5037939;28;20204;-63
2022/09/29 08:18:34;;;;;;;19.97;11.40;;;10.50;99.90;;;;;;5040070;28;20232;-64
2022/09/29 08:21:02;;;;;;;18.87;9.63;;;10.40;99.90;;;;;;5033311;28;20208;-64
2022/09/29 08:23:30;;;;;;;14.30;9.40;;;10.60;99.90;;;;;;5033094;28;20205;-64
2022/09/29 08:26:01;;;;;;;13.43;9.20;;;10.50;99.90;;;;;;5040877;28;20502;-65
2022/09/29 08:28:28;;;;;;;13.23;8.97;;;10.60;99.90;;;;;;5018040;28;20205;-64
2022/09/29 08:30:57;;;;;;;14.03;9.70;;;10.50;99.90;;;;;;5046644;28;20200;-64
2022/09/29 08:33:25;;;;;;;16.63;10.70;;;10.60;99.90;;;;;;5047944;28;20912;-65
2022/09/29 08:35:56;;;;;;;15.30;10.53;;;10.90;99.90;;;;;;5033651;28;20429;-64
2022/09/29 08:38:23;;;;;;;15.93;10.23;;;10.80;99.90;;;;;;5025360;28;21168;-64
2022/09/29 08:40:50;;;;;;;14.87;10.13;;;10.80;99.90;;;;;;5044202;28;20604;-65
2022/09/29 08:43:22;;;;;;;17.90;9.43;;;10.80;99.90;;;;;;4995999;28;20718;-65
2022/09/29 08:45:58;;;;;;;14.10;9.47;;;10.90;99.90;;;;;;5042160;28;20593;-64
2022/09/29 08:48:27;;;;;;;12.23;9.27;;;10.90;99.90;;;;;;5039330;28;20204;-65
2022/09/29 08:50:58;;;;;;;13.93;9.73;;;10.90;99.90;;;;;;5027570;28;20635;-64
2022/09/29 08:53:27;;;;;;;11.53;9.13;;;11.00;99.90;;;;;;5031287;28;20594;-65
2022/09/29 08:55:57;;;;;;;12.57;9.35;;;11.20;99.90;;;;;;5042708;28;20193;-64
2022/09/29 08:58:24;;;;;;;17.45;9.73;;;11.60;99.90;;;;;;4995176;28;20397;-65
2022/09/29 09:01:02;;;;;;;15.05;10.32;;;11.90;99.90;;;;;;5039454;28;20225;-65
2022/09/29 09:04:01;;;;;;;13.13;9.60;;;11.30;99.90;;;;;;5048098;28;20207;-65
2022/09/29 09:06:37;;;;;;;13.90;10.05;;;11.40;99.90;;;;;;5032667;28;22789;-65
2022/09/29 09:09:15;;;;;;;11.93;8.82;;;11.40;99.90;;;;;;5041216;28;20215;-65
2022/09/29 09:11:56;;;;;;;14.52;9.65;;;11.30;99.90;;;;;;5052975;28;20196;-65
2022/09/29 09:14:38;;;;;;;17.40;11.00;;;11.30;99.90;;;;;;5007610;28;20322;-65
2022/09/29 09:17:17;;;;;;;18.98;10.57;;;11.40;99.90;;;;;;5043735;28;20197;-65
2022/09/29 09:20:01;;;;;;;17.25;11.30;;;11.20;99.90;;;;;;5032572;28;20231;-64
2022/09/29 09:22:38;;;;;;;16.58;11.60;;;11.40;99.90;;;;;;5031742;28;20395;-65
2022/09/29 09:25:15;;;;;;;17.65;12.25;;;11.50;99.90;;;;;;5036234;28;20233;-65
2022/09/29 09:27:47;;;;;;;16.92;10.75;;;11.40;99.90;;;;;;5043445;28;20197;-65
2022/09/29 09:30:17;;;;;;;19.80;11.55;;;11.60;99.90;;;;;;5013386;28;20208;-65
2022/09/29 09:32:50;;;;;;;15.15;10.65;;;11.70;99.90;;;;;;5045985;28;20194;-65
2022/09/29 09:35:28;;;;;;;15.75;11.25;;;11.60;99.90;;;;;;5021217;28;20492;-65
2022/09/29 09:37:59;;;;;;;14.90;11.38;;;11.60;99.90;;;;;;5035410;28;20701;-65
2022/09/29 09:40:30;;;;;;;15.55;11.15;;;13.20;99.90;;;;;;5023414;28;20626;-65
2022/09/29 09:43:02;;;;;;;15.48;11.25;;;11.90;99.90;;;;;;5037953;28;20587;-64
2022/09/29 09:45:33;;;;;;;16.58;11.40;;;11.90;99.90;;;;;;5008797;28;20224;-65
2022/09/29 09:48:07;;;;;;;14.93;10.68;;;11.70;99.90;;;;;;5041045;28;20224;-65
2022/09/29 09:50:41;;;;;;;16.83;11.60;;;11.90;99.90;;;;;;5043292;28;20224;-65
2022/09/29 09:53:15;;;;;;;13.63;10.70;;;12.10;99.90;;;;;;5025255;28;20287;-65
2022/09/29 09:55:42;;;;;;;16.52;11.10;;;12.00;99.90;;;;;;5028242;28;20670;-65
2022/09/29 09:58:25;;;;;;;17.42;11.43;;;12.00;99.90;;;;;;5023199;28;20886;-65
2022/09/29 10:00:56;;;;;;;16.83;12.07;;;12.00;99.90;;;;;;5013304;28;20921;-65
2022/09/29 10:03:24;;;;;;;15.73;11.35;;;12.10;99.90;;;;;;5021262;28;20251;-65
2022/09/29 10:05:51;;;;;;;19.00;12.63;;;12.00;99.90;;;;;;5042066;28;20669;-65
2022/09/29 10:08:24;;;;;;;13.35;11.05;;;12.00;99.90;;;;;;5028709;28;20232;-65
2022/09/29 10:10:52;;;;;;;17.58;11.65;;;12.10;99.90;;;;;;5036249;28;20278;-65
2022/09/29 10:13:19;;;;;;;14.85;11.60;;;12.10;99.90;;;;;;5033549;28;20424;-65
2022/09/29 10:15:50;;;;;;;15.35;11.57;;;12.40;99.90;;;;;;5034371;28;20225;-65
2022/09/29 10:18:20;;;;;;;15.02;11.57;;;12.30;99.90;;;;;;5025139;28;20227;-65
2022/09/29 10:20:49;;;;;;;18.17;11.75;;;15.30;99.90;;;;;;5042908;28;20224;-65
2022/09/29 10:23:34;;;;;;;18.58;11.55;;;12.30;99.90;;;;;;5023384;28;20337;-65
2022/09/29 10:26:07;;;;;;;20.02;13.63;;;12.40;99.90;;;;;;5022851;28;20880;-65
2022/09/29 10:28:41;;;;;;;19.45;14.07;;;12.40;99.90;;;;;;5024146;28;20244;-65
2022/09/29 10:31:20;;;;;;;18.13;13.32;;;12.40;99.90;;;;;;5038118;28;20300;-65
2022/09/29 10:33:51;;;;;;;18.55;13.30;;;12.30;99.90;;;;;;5003296;28;20208;-65
2022/09/29 10:36:20;;;;;;;18.88;13.50;;;12.40;99.90;;;;;;5040401;28;20201;-65
2022/09/29 10:38:49;;;;;;;15.60;10.93;;;12.50;99.90;;;;;;5026000;28;20204;-65
2022/09/29 10:41:18;;;;;;;17.90;11.45;;;12.50;99.90;;;;;;5037491;28;20793;-65
2022/09/29 10:43:47;;;;;;;18.65;12.40;;;12.50;99.90;;;;;;5019672;28;20228;-65
2022/09/29 10:46:36;;;;;;;17.30;11.63;;;12.60;99.90;;;;;;5038272;28;20311;-65
2022/09/29 10:49:13;;;;;;;15.02;10.60;;;12.60;99.90;;;;;;5000413;28;20218;-65
2022/09/29 10:51:49;;;;;;;17.13;10.60;;;12.60;99.90;;;;;;5037898;28;20317;-65
2022/09/29 10:54:17;;;;;;;15.95;10.38;;;12.60;99.90;;;;;;5027280;28;20711;-65
2022/09/29 10:56:47;;;;;;;13.90;10.63;;;;;;;;;;5046057;28;20465;-65
2022/09/29 10:59:15;;;;;;;14.82;10.65;;;12.60;99.90;;;;;;5025335;28;20733;-66
2022/09/29 11:01:46;;;;;;;13.00;10.20;;;12.70;99.90;;;;;;5035038;28;20251;-65
2022/09/29 11:04:18;;;;;;;14.73;10.55;;;12.80;99.90;;;;;;4988436;28;21406;-65
2022/09/29 11:06:47;;;;;;;13.52;9.82;;;12.80;99.90;;;;;;5035160;28;20405;-65
2022/09/29 11:09:29;;;;;;;12.85;10.25;;;12.80;99.90;;;;;;5030278;28;20221;-65
2022/09/29 11:11:58;;;;;;;14.40;9.63;;;12.90;99.90;;;;;;5038418;28;20216;-65
2022/09/29 11:14:27;;;;;;;12.50;8.60;;;12.90;99.90;;;;;;5009971;28;20235;-63
2022/09/29 11:16:56;;;;;;;14.15;8.85;;;12.90;99.90;;;;;;5027074;28;20571;-65
2022/09/29 11:19:23;;;;;;;10.65;8.60;;;12.80;99.90;;;;;;5007892;28;20243;-65
2022/09/29 11:22:23;;;;;;;9.57;7.30;;;12.80;99.90;;;;;;5036643;28;20200;-65
2022/09/29 11:25:18;;;;;;;10.68;7.43;;;12.80;99.90;;;;;;5016985;28;20957;-65
2022/09/29 11:28:03;;;;;;;10.93;7.38;;;12.90;99.90;;;;;;5038166;28;20201;-65
2022/09/29 11:30:47;;;;;;;8.93;7.05;;;12.90;99.90;;;;;;5030399;28;20446;-65
2022/09/29 11:33:22;;;;;;;9.40;6.78;;;12.90;99.90;;;;;;4999454;28;20636;-65
2022/09/29 11:35:56;;;;;;;7.82;6.57;;;12.20;99.90;;;;;;5006073;28;20220;-65
2022/09/29 11:38:38;;;;;;;7.93;6.43;;;12.90;99.90;;;;;;5024482;28;20414;-65
2022/09/29 11:41:24;;;;;;;9.73;6.38;;;12.90;99.90;;;;;;5039441;28;20325;-65
2022/09/29 11:43:54;;;;;;;8.20;5.95;;;12.90;99.90;;;;;;5025179;28;20209;-65
2022/09/29 11:46:35;;;;;;;8.77;6.63;;;13.00;99.90;;;;;;5029624;28;20201;-66
2022/09/29 11:49:21;;;;;;;11.15;6.60;;;12.90;99.90;;;;;;5023645;28;20209;-65
2022/09/29 11:52:06;;;;;;;9.07;6.10;;;12.90;99.90;;;;;;5007471;28;20220;-65
2022/09/29 11:54:47;;;;;;;8.55;5.97;;;12.90;99.90;;;;;;5027309;28;20430;-65
2022/09/29 11:57:23;;;;;;;12.65;5.75;;;13.10;99.90;;;;;;5033436;28;20225;-65
2022/09/29 12:00:08;;;;;;;12.07;5.95;;;13.10;99.90;;;;;;5029438;28;20228;-65
2022/09/29 12:02:54;;;;;;;8.52;6.22;;;13.00;99.90;;;;;;5022708;28;20227;-65
2022/09/29 12:05:27;;;;;;;8.85;5.95;;;12.90;99.90;;;;;;5010503;28;20212;-65
2022/09/29 12:08:04;;;;;;;10.05;6.38;;;12.90;99.90;;;;;;5026430;28;20255;-65
2022/09/29 12:10:50;;;;;;;8.73;6.18;;;13.00;99.90;;;;;;5030102;28;20324;-65
2022/09/29 12:13:31;;;;;;;9.75;6.57;;;13.00;99.90;;;;;;5036250;28;20721;-65
2022/09/29 12:16:02;;;;;;;9.95;6.20;;;13.00;99.90;;;;;;5024113;28;20232;-65
2022/09/29 12:18:37;;;;;;;7.75;6.00;;;12.90;99.90;;;;;;5031555;28;20847;-65
2022/09/29 12:21:07;;;;;;;8.88;6.57;;;12.90;99.90;;;;;;5000606;28;20231;-65
2022/09/29 12:23:36;;;;;;;10.57;6.35;;;12.90;99.90;;;;;;5030125;28;20196;-65
2022/09/29 12:26:08;;;;;;;10.85;6.10;;;13.00;99.90;;;;;;5032901;28;20225;-64
2022/09/29 12:28:42;;;;;;;8.77;6.60;;;13.00;99.90;;;;;;5043761;28;20200;-64
2022/09/29 12:31:15;;;;;;;11.25;6.68;;;13.00;99.90;;;;;;5024321;28;20233;-65
2022/09/29 12:33:45;;;;;;;9.73;6.43;;;13.20;99.90;;;;;;5042973;28;20204;-64
2022/09/29 12:36:45;;;;;;;7.57;5.50;;;13.10;99.90;;;;;;5010218;28;27866;-64
2022/09/29 12:39:24;;;;;;;5.85;5.13;;;13.10;99.90;;;;;;5020789;28;21074;-63
2022/09/29 12:41:53;;;;;;;5.45;4.50;;;;;;;;;;5017415;28;20728;-65
2022/09/29 12:44:29;;;;;;;5.53;4.35;;;13.10;99.90;;;;;;5036144;28;20326;-65
2022/09/29 12:47:03;;;;;;;9.18;4.90;;;13.10;99.90;;;;;;5021756;28;22226;-64
2022/09/29 12:49:36;;;;;;;6.60;4.63;;;13.30;99.90;;;;;;5035975;28;20291;-64
2022/09/29 12:52:08;;;;;;;12.15;5.18;;;11.70;99.90;;;;;;4992731;28;20232;-65
2022/09/29 12:54:40;;;;;;;7.65;4.68;;;13.20;99.90;;;;;;5020371;28;20286;-64
2022/09/29 12:57:13;;;;;;;5.65;4.65;;;13.20;99.90;;;;;;5012254;28;20225;-65
2022/09/29 12:59:49;;;;;;;7.15;4.97;;;13.20;99.90;;;;;;5035082;28;20218;-64
2022/09/29 13:02:36;;;;;;;4.93;4.15;;;13.20;99.90;;;;;;5028019;28;20230;-65
2022/09/29 13:05:22;;;;;;;4.97;3.88;;;13.10;99.90;;;;;;5037006;28;20722;-64
2022/09/29 13:08:06;;;;;;;5.40;3.70;;;12.20;97.90;;;;;;4989321;28;20231;-64
2022/09/29 13:10:54;;;;;;;4.68;4.07;;;13.30;98.90;;;;;;5003322;28;20669;-65